Time;durP1;ratioP1;P1;durP2;ratioP2;P2;SDS_P1;SDS_P2;PMS_P1;PMS_P2;Temp;Humidity;BMP_temperature;BMP_pressure;BME280_temperature;BME280_humidity;BME280_pressure;Samples;Min_cycle;Max_cycle;Signal;HPM_P1;HPM_P2
2023/04/13 00:01:48;;;;;;;7.20;3.90;;;7.60;99.90;;;;;;4992014;28;20030;-56
2023/04/13 00:04:35;;;;;;;5.43;3.60;;;7.50;99.90;;;;;;4991777;28;20030;-55
2023/04/13 00:07:21;;;;;;;5.65;3.70;;;7.40;99.90;;;;;;4990448;28;20443;-56
2023/04/13 00:10:08;;;;;;;6.20;3.70;;;7.40;99.90;;;;;;4991892;28;20072;-54
2023/04/13 00:12:57;;;;;;;4.18;3.28;;;7.30;99.90;;;;;;4972348;28;20059;-56
2023/04/13 00:15:43;;;;;;;4.95;3.35;;;7.20;99.90;;;;;;4972269;28;20039;-55
2023/04/13 00:18:30;;;;;;;4.55;3.20;;;7.20;99.90;;;;;;4977621;28;20349;-55
2023/04/13 00:21:16;;;;;;;7.45;3.40;;;7.20;99.90;;;;;;4977859;28;20042;-49
2023/04/13 00:24:02;;;;;;;4.35;3.50;;;7.20;99.90;;;;;;4989615;28;20037;-53
2023/04/13 00:26:48;;;;;;;3.60;3.05;;;7.30;99.90;;;;;;4991331;28;20474;-54
2023/04/13 00:29:34;;;;;;;4.60;3.10;;;7.20;99.90;;;;;;4990797;28;20038;-54
2023/04/13 00:32:20;;;;;;;5.40;3.25;;;7.10;99.90;;;;;;4991957;28;20077;-53
2023/04/13 00:35:08;;;;;;;4.47;3.20;;;7.10;99.90;;;;;;4990512;28;20566;-54
2023/04/13 00:37:54;;;;;;;3.60;3.00;;;7.20;99.90;;;;;;4989783;28;20038;-53
2023/04/13 00:40:40;;;;;;;4.78;3.53;;;7.20;99.90;;;;;;4990611;28;20027;-52
2023/04/13 00:43:26;;;;;;;4.82;3.15;;;7.30;99.90;;;;;;4991694;28;20104;-49
2023/04/13 00:46:15;;;;;;;6.63;3.20;;;7.30;99.90;;;;;;4991516;28;20038;-54
2023/04/13 00:49:00;;;;;;;5.25;3.40;;;7.40;99.90;;;;;;4990006;28;20172;-54
2023/04/13 00:51:47;;;;;;;5.90;3.35;;;7.60;99.90;;;;;;4992166;28;20112;-56
2023/04/13 00:54:34;;;;;;;5.38;2.92;;;7.60;99.90;;;;;;4993578;28;20073;-54
2023/04/13 00:57:21;;;;;;;4.75;3.10;;;7.60;99.90;;;;;;4993905;28;20034;-52
2023/04/13 01:00:08;;;;;;;5.50;3.30;;;7.60;99.90;;;;;;4994136;28;20022;-50
2023/04/13 01:02:54;;;;;;;4.90;3.35;;;7.50;99.90;;;;;;4978194;28;20516;-52
2023/04/13 01:06:09;;;;;;;3.70;3.28;;;7.30;99.90;;;;;;4995437;28;20077;-53
2023/04/13 01:09:08;;;;;;;7.45;3.50;;;7.20;99.90;;;;;;4993797;28;20025;-51
2023/04/13 01:12:01;;;;;;;6.53;3.80;;;7.20;99.90;;;;;;4980080;28;20027;-53
2023/04/13 01:14:54;;;;;;;6.43;3.42;;;7.20;99.90;;;;;;4992643;28;20031;-51
2023/04/13 01:17:47;;;;;;;4.38;3.40;;;7.20;99.90;;;;;;4994203;28;20442;-54
2023/04/13 01:20:36;;;;;;;5.90;3.33;;;7.20;99.90;;;;;;4992750;28;20030;-51
2023/04/13 01:23:27;;;;;;;6.05;3.22;;;7.30;99.90;;;;;;4993524;28;20026;-53
2023/04/13 01:26:13;;;;;;;5.65;3.80;;;7.30;99.90;;;;;;4992459;28;20022;-51
2023/04/13 01:28:59;;;;;;;4.85;3.53;;;7.30;99.90;;;;;;4976053;28;20075;-52
2023/04/13 01:31:45;;;;;;;5.45;3.92;;;7.30;99.90;;;;;;4987039;28;20029;-50
2023/04/13 01:34:32;;;;;;;6.40;3.88;;;7.20;99.90;;;;;;4993891;28;20088;-53
2023/04/13 01:37:19;;;;;;;7.28;3.92;;;7.20;99.90;;;;;;4993715;28;20027;-52
2023/04/13 01:40:12;;;;;;;8.20;4.30;;;7.10;99.90;;;;;;4994070;28;20026;-53
2023/04/13 01:42:58;;;;;;;6.57;4.00;;;7.00;99.90;;;;;;4974248;28;20116;-51
2023/04/13 01:46:06;;;;;;;4.70;3.55;;;6.90;99.90;;;;;;4974404;28;20165;-50
2023/04/13 01:48:55;;;;;;;5.38;3.90;;;7.00;99.90;;;;;;4979961;28;20065;-53
2023/04/13 01:51:44;;;;;;;5.68;3.97;;;7.00;99.90;;;;;;4978768;28;20023;-52
2023/04/13 01:54:32;;;;;;;5.45;3.90;;;6.90;99.90;;;;;;4994263;28;20038;-50
2023/04/13 01:57:21;;;;;;;5.55;4.28;;;7.00;99.90;;;;;;4993066;28;20483;-54
2023/04/13 02:00:11;;;;;;;5.80;3.85;;;7.10;99.90;;;;;;4992258;28;20035;-51
2023/04/13 02:02:57;;;;;;;6.00;4.03;;;7.10;99.90;;;;;;4991595;28;20034;-53
2023/04/13 02:05:43;;;;;;;6.53;3.90;;;7.10;99.90;;;;;;4992290;28;20097;-50
2023/04/13 02:08:30;;;;;;;6.18;3.80;;;7.10;99.90;;;;;;4992663;28;20049;-52
2023/04/13 02:11:16;;;;;;;4.47;3.80;;;7.20;99.90;;;;;;4992245;28;20415;-52
2023/04/13 02:14:02;;;;;;;6.68;3.67;;;7.20;99.90;;;;;;4992815;28;20097;-53
2023/04/13 02:16:48;;;;;;;7.00;4.38;;;7.30;99.90;;;;;;4993430;28;20065;-54
2023/04/13 02:19:34;;;;;;;6.70;4.00;;;7.30;99.90;;;;;;4993771;28;20191;-54
2023/04/13 02:22:21;;;;;;;5.30;3.97;;;7.30;99.90;;;;;;4979134;28;20058;-55
2023/04/13 02:25:07;;;;;;;7.82;4.47;;;7.30;99.90;;;;;;4975720;28;20046;-54
2023/04/13 02:27:53;;;;;;;5.97;4.18;;;7.30;99.90;;;;;;4990638;28;20037;-51
2023/04/13 02:30:39;;;;;;;6.93;4.13;;;7.30;99.90;;;;;;4994271;28;20042;-50
2023/04/13 02:33:30;;;;;;;6.78;4.00;;;7.40;99.90;;;;;;4977987;28;20117;-52
2023/04/13 02:36:18;;;;;;;6.40;4.00;;;7.40;99.90;;;;;;4993136;28;20451;-55
2023/04/13 02:39:03;;;;;;;7.72;3.78;;;7.40;99.90;;;;;;4991874;28;20027;-52
2023/04/13 02:41:50;;;;;;;5.97;4.10;;;7.40;99.90;;;;;;4978417;28;20109;-51
2023/04/13 02:44:37;;;;;;;5.25;3.80;;;7.40;99.90;;;;;;4992460;28;20515;-57
2023/04/13 02:47:23;;;;;;;5.35;4.00;;;7.40;99.90;;;;;;4991845;28;20604;-54
2023/04/13 02:50:10;;;;;;;6.63;4.20;;;7.50;99.90;;;;;;4977937;28;20529;-49
2023/04/13 02:52:56;;;;;;;6.13;4.13;;;7.50;99.90;;;;;;4978415;28;20054;-51
2023/04/13 02:55:42;;;;;;;5.32;4.03;;;7.50;99.90;;;;;;4994578;28;20069;-57
2023/04/13 02:58:30;;;;;;;4.78;3.92;;;7.50;99.90;;;;;;4989592;28;20037;-57
2023/04/13 03:01:16;;;;;;;5.57;4.40;;;7.50;99.90;;;;;;4998811;28;20081;-58
2023/04/13 03:04:02;;;;;;;5.45;4.07;;;7.60;99.90;;;;;;4992393;28;20534;-50
2023/04/13 03:06:48;;;;;;;5.05;4.15;;;7.60;99.90;;;;;;4992202;28;20058;-53
2023/04/13 03:09:36;;;;;;;5.20;3.22;;;7.60;99.90;;;;;;4981058;28;20026;-55
2023/04/13 03:12:21;;;;;;;6.07;3.78;;;7.50;99.90;;;;;;4975485;28;20069;-55
2023/04/13 03:15:10;;;;;;;5.15;3.70;;;7.50;99.90;;;;;;4992575;28;20511;-50
2023/04/13 03:17:58;;;;;;;5.80;3.85;;;7.50;99.90;;;;;;4978018;28;20573;-51
2023/04/13 03:20:44;;;;;;;4.93;3.70;;;7.50;99.90;;;;;;4991781;28;20018;-54
2023/04/13 03:23:31;;;;;;;4.78;4.03;;;7.50;99.90;;;;;;4992440;28;20109;-56
2023/04/13 03:26:16;;;;;;;7.13;4.25;;;7.50;99.90;;;;;;4990878;28;20072;-55
2023/04/13 03:29:02;;;;;;;7.10;4.82;;;7.60;99.90;;;;;;4972837;28;20045;-52
2023/04/13 03:31:50;;;;;;;7.45;5.43;;;7.70;99.90;;;;;;4990364;28;20034;-53
2023/04/13 03:34:36;;;;;;;7.97;5.95;;;7.70;99.90;;;;;;4990236;28;20027;-53
2023/04/13 03:37:22;;;;;;;6.65;5.75;;;7.60;99.90;;;;;;4990719;28;20026;-53
2023/04/13 03:40:09;;;;;;;8.45;6.38;;;7.60;99.90;;;;;;4991214;28;20029;-53
2023/04/13 03:42:55;;;;;;;9.88;6.72;;;7.70;99.90;;;;;;4991708;28;20644;-54
2023/04/13 03:45:41;;;;;;;9.20;6.47;;;7.70;99.90;;;;;;4991687;28;20474;-56
2023/04/13 03:48:27;;;;;;;7.57;6.00;;;7.70;99.90;;;;;;4989945;28;20068;-52
2023/04/13 03:51:13;;;;;;;10.25;5.75;;;7.70;99.90;;;;;;4977674;28;20049;-57
2023/04/13 03:53:58;;;;;;;7.72;5.90;;;7.70;99.90;;;;;;4990977;28;20038;-54
2023/04/13 03:56:45;;;;;;;20.50;12.68;;;7.70;99.90;;;;;;4992499;28;20546;-50
2023/04/13 03:59:30;;;;;;;46.42;28.02;;;7.70;99.90;;;;;;4990253;28;20042;-52
2023/04/13 04:02:17;;;;;;;34.42;20.83;;;7.70;99.90;;;;;;4991575;28;20031;-50
2023/04/13 04:05:03;;;;;;;9.23;6.90;;;7.70;99.90;;;;;;4991088;28;20027;-54
2023/04/13 04:07:49;;;;;;;7.00;5.00;;;7.70;99.90;;;;;;4991221;28;20077;-49
2023/04/13 04:10:35;;;;;;;6.00;4.47;;;7.70;99.90;;;;;;4991131;28;20064;-52
2023/04/13 04:13:21;;;;;;;5.68;4.18;;;7.70;99.90;;;;;;4991098;28;20033;-50
2023/04/13 04:16:08;;;;;;;5.75;4.53;;;7.70;99.90;;;;;;4991850;28;20035;-52
2023/04/13 04:18:54;;;;;;;7.47;6.68;;;7.70;99.90;;;;;;4975391;28;20026;-53
2023/04/13 04:21:45;;;;;;;6.65;5.47;;;7.70;99.90;;;;;;4990940;28;20023;-53
2023/04/13 04:24:31;;;;;;;4.88;3.75;;;7.60;99.90;;;;;;4974783;28;20589;-54
2023/04/13 04:27:17;;;;;;;6.45;4.32;;;7.70;99.90;;;;;;4994639;28;20376;-51
2023/04/13 04:30:05;;;;;;;6.03;5.03;;;7.80;99.90;;;;;;4994969;28;20031;-54
2023/04/13 04:32:52;;;;;;;5.78;5.18;;;7.70;99.90;;;;;;4994623;28;20026;-54
2023/04/13 04:35:42;;;;;;;8.27;5.30;;;7.70;99.90;;;;;;4980497;28;20037;-54
2023/04/13 04:38:29;;;;;;;6.65;4.70;;;7.70;99.90;;;;;;4993735;28;20519;-51
2023/04/13 04:41:19;;;;;;;6.30;4.43;;;7.60;99.90;;;;;;4993715;28;20026;-52
2023/04/13 04:44:07;;;;;;;7.00;4.38;;;7.60;99.90;;;;;;4994743;28;20034;-55
2023/04/13 04:46:54;;;;;;;6.50;5.00;;;7.60;99.90;;;;;;4980119;28;20031;-55
2023/04/13 04:49:40;;;;;;;8.18;4.50;;;7.60;99.90;;;;;;4994095;28;20038;-53
2023/04/13 04:52:26;;;;;;;6.70;4.95;;;7.60;99.90;;;;;;4995746;28;20084;-54
2023/04/13 04:55:12;;;;;;;12.52;7.68;;;7.70;99.90;;;;;;4966602;28;20034;-53
2023/04/13 04:57:58;;;;;;;7.07;4.18;;;7.60;99.90;;;;;;4993577;28;20457;-53
2023/04/13 05:00:44;;;;;;;5.85;4.22;;;7.70;99.90;;;;;;4998489;28;20058;-52
2023/04/13 05:03:30;;;;;;;16.25;12.55;;;7.70;99.90;;;;;;4994439;28;20109;-53
2023/04/13 05:06:16;;;;;;;23.60;14.90;;;7.70;99.90;;;;;;4994398;28;20027;-53
2023/04/13 05:09:05;;;;;;;12.38;8.88;;;7.70;99.90;;;;;;4993537;28;20034;-51
2023/04/13 05:11:51;;;;;;;6.03;4.45;;;7.70;99.90;;;;;;4994241;28;20062;-51
2023/04/13 05:14:38;;;;;;;8.82;6.28;;;7.70;99.90;;;;;;4994157;28;20100;-54
2023/04/13 05:17:24;;;;;;;4.93;3.63;;;7.70;99.90;;;;;;4993979;28;20029;-51
2023/04/13 05:20:11;;;;;;;4.95;3.67;;;7.80;99.90;;;;;;4993727;28;20026;-49
2023/04/13 05:22:58;;;;;;;4.65;3.33;;;7.80;99.90;;;;;;4994129;28;20114;-51
2023/04/13 05:25:44;;;;;;;8.00;3.70;;;7.90;99.90;;;;;;4979796;28;20517;-52
2023/04/13 05:28:30;;;;;;;4.32;3.47;;;7.90;99.90;;;;;;4994811;28;20034;-52
2023/04/13 05:31:16;;;;;;;4.50;3.42;;;8.00;99.90;;;;;;4994636;28;20125;-51
2023/04/13 05:34:02;;;;;;;5.90;3.55;;;8.10;99.90;;;;;;4993158;28;20445;-54
2023/04/13 05:36:49;;;;;;;5.05;3.67;;;8.00;99.90;;;;;;4992795;28;20133;-53
2023/04/13 05:39:35;;;;;;;3.35;2.90;;;8.10;99.90;;;;;;4993963;28;20018;-53
2023/04/13 05:42:21;;;;;;;5.72;4.00;;;8.10;99.90;;;;;;4993744;28;20053;-50
2023/04/13 05:45:09;;;;;;;3.55;3.00;;;8.10;99.90;;;;;;4993882;28;20031;-51
2023/04/13 05:47:55;;;;;;;5.35;3.63;;;8.10;99.90;;;;;;4992311;28;20030;-49
2023/04/13 05:50:42;;;;;;;5.22;3.15;;;8.10;99.90;;;;;;4993593;28;20046;-51
2023/04/13 05:53:28;;;;;;;5.03;2.83;;;8.10;99.90;;;;;;4992153;28;20031;-53
2023/04/13 05:56:14;;;;;;;5.45;3.10;;;8.10;99.90;;;;;;4974426;28;20030;-52
2023/04/13 05:59:00;;;;;;;4.07;2.80;;;8.20;99.90;;;;;;4976612;28;20039;-55
2023/04/13 06:01:46;;;;;;;3.67;2.90;;;8.20;99.90;;;;;;4992797;28;20085;-55
2023/04/13 06:04:33;;;;;;;3.47;2.80;;;8.10;99.90;;;;;;4992256;28;20511;-53
2023/04/13 06:07:20;;;;;;;5.30;2.80;;;8.10;99.90;;;;;;4978559;28;20085;-51
2023/04/13 06:10:07;;;;;;;4.20;2.60;;;8.10;99.90;;;;;;4992923;28;20499;-54
2023/04/13 06:12:53;;;;;;;5.90;3.40;;;8.10;99.90;;;;;;4994350;28;20521;-51
2023/04/13 06:15:39;;;;;;;6.22;4.68;;;8.10;99.90;;;;;;4994006;28;20034;-54
2023/04/13 06:18:26;;;;;;;3.40;2.50;;;8.10;99.90;;;;;;4992447;28;20026;-56
2023/04/13 06:21:12;;;;;;;7.13;2.67;;;8.20;99.90;;;;;;4993825;28;20046;-56
2023/04/13 06:23:58;;;;;;;4.47;3.03;;;8.20;99.90;;;;;;4994536;28;20034;-55
2023/04/13 06:26:43;;;;;;;7.90;2.90;;;8.20;99.90;;;;;;4995234;28;20121;-55
2023/04/13 06:29:30;;;;;;;5.70;3.45;;;8.20;99.90;;;;;;4993789;28;20038;-55
2023/04/13 06:32:16;;;;;;;3.90;2.95;;;8.20;99.90;;;;;;4994086;28;20534;-53
2023/04/13 06:35:04;;;;;;;5.40;3.05;;;8.30;99.90;;;;;;4991733;28;20121;-56
2023/04/13 06:37:50;;;;;;;5.30;3.60;;;8.40;99.90;;;;;;4990599;28;20068;-51
2023/04/13 06:40:37;;;;;;;4.55;2.83;;;8.40;99.90;;;;;;4992441;28;20022;-57
2023/04/13 06:43:23;;;;;;;4.53;2.70;;;8.30;99.90;;;;;;4991976;28;20066;-51
2023/04/13 06:46:10;;;;;;;2.90;2.50;;;8.30;99.90;;;;;;4992552;28;20029;-49
2023/04/13 06:48:56;;;;;;;4.13;2.55;;;8.30;99.90;;;;;;4989450;28;20041;-56
2023/04/13 06:51:42;;;;;;;3.15;2.60;;;8.40;99.90;;;;;;4992803;28;20027;-56
2023/04/13 06:54:29;;;;;;;5.07;2.60;;;8.40;99.90;;;;;;4992460;28;20034;-56
2023/04/13 06:57:15;;;;;;;6.18;2.90;;;8.30;99.90;;;;;;4990855;28;20029;-56
2023/04/13 07:00:01;;;;;;;4.60;2.90;;;8.30;99.90;;;;;;4992088;28;20034;-56
2023/04/13 07:02:47;;;;;;;5.28;2.75;;;8.40;99.90;;;;;;4972964;28;20542;-54
2023/04/13 07:05:32;;;;;;;5.55;2.40;;;8.30;99.90;;;;;;4976360;28;20042;-52
2023/04/13 07:08:18;;;;;;;4.43;2.55;;;8.30;99.90;;;;;;4991879;28;20034;-54
2023/04/13 07:11:05;;;;;;;5.13;2.80;;;8.20;99.90;;;;;;4992295;28;20046;-49
2023/04/13 07:13:51;;;;;;;4.10;2.45;;;8.30;99.90;;;;;;4991964;28;20107;-52
2023/04/13 07:16:37;;;;;;;3.78;2.90;;;8.20;99.90;;;;;;4991632;28;20045;-57
2023/04/13 07:19:24;;;;;;;4.20;2.28;;;8.30;99.90;;;;;;4992102;28;20031;-51
2023/04/13 07:22:10;;;;;;;5.57;2.50;;;8.40;99.90;;;;;;4989938;28;20030;-53
2023/04/13 07:24:56;;;;;;;5.97;3.17;;;8.50;99.90;;;;;;4993321;28;20491;-53
2023/04/13 07:27:42;;;;;;;4.03;2.88;;;8.50;99.90;;;;;;4993166;28;20077;-49
2023/04/13 07:30:29;;;;;;;5.43;2.50;;;8.50;99.90;;;;;;4990510;28;20473;-51
2023/04/13 07:33:15;;;;;;;4.38;2.53;;;8.80;99.90;;;;;;4990626;28;20041;-64
2023/04/13 07:36:01;;;;;;;3.20;2.88;;;8.90;99.90;;;;;;4977156;28;20076;-49
2023/04/13 07:38:46;;;;;;;5.28;2.40;;;8.80;99.90;;;;;;4991322;28;20420;-49
2023/04/13 07:41:33;;;;;;;4.13;2.53;;;8.80;99.90;;;;;;4991797;28;20547;-51
2023/04/13 07:44:18;;;;;;;5.35;2.53;;;9.00;99.90;;;;;;4992434;28;20510;-49
2023/04/13 07:47:04;;;;;;;3.88;2.22;;;9.10;99.90;;;;;;4991360;28;20037;-49
2023/04/13 07:49:50;;;;;;;5.13;2.67;;;9.10;99.90;;;;;;4990508;28;20035;-50
2023/04/13 07:52:36;;;;;;;4.10;2.40;;;9.10;99.90;;;;;;4972375;28;20035;-50
2023/04/13 07:55:22;;;;;;;4.70;2.42;;;9.30;99.90;;;;;;4974603;28;20031;-52
2023/04/13 07:58:08;;;;;;;5.65;2.60;;;9.30;99.90;;;;;;4992307;28;20117;-53
2023/04/13 08:00:55;;;;;;;7.63;2.90;;;9.30;99.90;;;;;;4988844;28;20041;-53
2023/04/13 08:03:41;;;;;;;8.43;3.35;;;9.50;99.90;;;;;;4992578;28;20586;-53
2023/04/13 08:06:27;;;;;;;6.00;2.47;;;9.60;99.90;;;;;;4991816;28;20085;-56
2023/04/13 08:09:13;;;;;;;7.78;2.70;;;9.60;99.90;;;;;;4993651;28;20068;-51
2023/04/13 08:11:59;;;;;;;4.05;2.65;;;9.80;99.90;;;;;;4991277;28;20666;-53
2023/04/13 08:14:45;;;;;;;5.57;2.75;;;9.90;99.90;;;;;;4973736;28;20045;-57
2023/04/13 08:17:32;;;;;;;7.25;3.08;;;9.70;99.90;;;;;;4989293;28;20070;-54
2023/04/13 08:20:19;;;;;;;5.93;2.90;;;9.70;99.90;;;;;;4990518;28;20097;-50
2023/04/13 08:23:05;;;;;;;4.78;2.88;;;9.70;99.90;;;;;;4990467;28;20089;-54
2023/04/13 08:25:51;;;;;;;3.67;2.20;;;9.70;99.90;;;;;;4990759;28;20087;-55
2023/04/13 08:28:37;;;;;;;6.10;3.00;;;9.80;99.90;;;;;;4990215;28;20044;-58
2023/04/13 08:31:23;;;;;;;6.32;2.40;;;9.90;99.90;;;;;;4990926;28;20031;-57
2023/04/13 08:34:10;;;;;;;4.22;2.00;;;9.90;99.60;;;;;;4991350;28;20407;-53
2023/04/13 08:36:56;;;;;;;5.00;2.30;;;10.00;98.90;;;;;;4990981;28;20106;-53
2023/04/13 08:39:42;;;;;;;7.07;2.53;;;10.10;99.30;;;;;;4989942;28;20176;-54
2023/04/13 08:42:29;;;;;;;5.68;2.30;;;10.20;99.90;;;;;;4991149;28;20058;-56
2023/04/13 08:45:16;;;;;;;6.10;2.28;;;10.50;99.20;;;;;;4991152;28;20034;-55
2023/04/13 08:48:02;;;;;;;4.15;2.47;;;10.40;98.70;;;;;;4990419;28;20034;-59
2023/04/13 08:50:52;;;;;;;4.57;2.10;;;10.30;98.20;;;;;;4972192;28;20699;-54
2023/04/13 08:53:38;;;;;;;4.10;2.33;;;10.40;98.50;;;;;;4970302;28;20041;-51
2023/04/13 08:56:26;;;;;;;5.82;2.63;;;10.50;98.50;;;;;;4965775;28;20046;-52
2023/04/13 08:59:14;;;;;;;5.43;2.28;;;10.80;98.90;;;;;;4989345;28;20039;-54
2023/04/13 09:02:03;;;;;;;5.25;2.42;;;10.80;97.70;;;;;;4986064;28;20466;-55
2023/04/13 09:04:52;;;;;;;5.20;2.13;;;10.90;98.00;;;;;;4990490;28;20038;-53
2023/04/13 09:07:38;;;;;;;3.40;2.20;;;11.00;97.40;;;;;;4988742;28;20061;-54
2023/04/13 09:10:25;;;;;;;4.28;2.30;;;10.80;97.30;;;;;;4989259;28;20034;-52
2023/04/13 09:13:11;;;;;;;2.45;2.10;;;10.80;97.60;;;;;;4952641;28;20038;-55
2023/04/13 09:15:57;;;;;;;4.07;2.70;;;10.60;98.00;;;;;;4994086;28;20053;-53
2023/04/13 09:18:54;;;;;;;8.50;2.38;;;10.50;97.90;;;;;;4993475;28;20037;-51
2023/04/13 09:21:44;;;;;;;5.32;2.22;;;10.40;98.20;;;;;;4996699;28;20030;-56
2023/04/13 09:24:40;;;;;;;4.60;2.20;;;10.40;98.20;;;;;;4997073;28;20031;-51
2023/04/13 09:27:26;;;;;;;4.50;2.53;;;10.50;98.20;;;;;;4994208;28;20517;-55
2023/04/13 09:30:12;;;;;;;6.38;2.95;;;10.60;98.30;;;;;;4989028;28;20511;-54
2023/04/13 09:33:06;;;;;;;5.85;2.55;;;10.70;98.10;;;;;;5010279;28;20030;-52
2023/04/13 09:35:52;;;;;;;3.90;2.72;;;10.80;98.00;;;;;;4990420;28;20609;-52
2023/04/13 09:38:38;;;;;;;4.75;2.63;;;10.70;97.90;;;;;;4992016;28;20464;-52
2023/04/13 09:41:38;;;;;;;6.13;2.80;;;10.60;97.80;;;;;;4994333;28;20510;-54
2023/04/13 09:44:26;;;;;;;6.65;2.45;;;10.70;98.20;;;;;;4990283;28;20038;-52
2023/04/13 09:47:12;;;;;;;4.38;2.03;;;10.90;97.80;;;;;;4988822;28;20399;-53
2023/04/13 09:49:58;;;;;;;5.97;2.50;;;10.90;97.70;;;;;;4977628;28;20023;-55
2023/04/13 09:52:44;;;;;;;6.50;2.63;;;10.90;97.70;;;;;;4988626;28;20034;-53
2023/04/13 09:55:32;;;;;;;6.07;2.30;;;10.90;98.00;;;;;;4977672;28;20466;-54
2023/04/13 09:58:18;;;;;;;7.95;2.83;;;11.00;98.20;;;;;;4992691;28;20092;-53
2023/04/13 10:01:04;;;;;;;7.20;2.97;;;10.90;98.20;;;;;;4993420;28;20023;-52
2023/04/13 10:03:50;;;;;;;4.43;2.50;;;10.90;98.00;;;;;;4992736;28;20030;-53
2023/04/13 10:06:38;;;;;;;4.32;2.50;;;11.10;97.90;;;;;;4993037;28;20042;-53
2023/04/13 10:09:25;;;;;;;5.25;2.75;;;11.20;97.70;;;;;;4987646;28;20058;-61
2023/04/13 10:12:14;;;;;;;6.32;2.83;;;11.00;98.00;;;;;;4991571;28;20487;-52
2023/04/13 10:15:25;;;;;;;4.97;2.50;;;11.00;98.30;;;;;;4992281;28;20026;-53
2023/04/13 10:18:42;;;;;;;4.55;2.40;;;11.20;98.30;;;;;;4991464;28;20034;-53
2023/04/13 10:21:35;;;;;;;4.20;2.67;;;11.30;97.80;;;;;;4978315;28;20105;-54
2023/04/13 10:24:23;;;;;;;4.55;2.55;;;11.20;97.80;;;;;;4992589;28;20388;-50
2023/04/13 10:27:12;;;;;;;3.47;2.33;;;11.10;97.50;;;;;;4983536;28;20500;-54
2023/04/13 10:29:59;;;;;;;3.50;2.50;;;11.30;97.70;;;;;;4978832;28;20546;-57
2023/04/13 10:32:46;;;;;;;6.82;2.70;;;11.30;97.80;;;;;;4991659;28;20042;-52
2023/04/13 10:35:35;;;;;;;5.10;2.40;;;11.30;97.70;;;;;;4973856;28;20046;-50
2023/04/13 10:38:22;;;;;;;8.57;2.58;;;11.20;97.90;;;;;;4987316;28;20072;-49
2023/04/13 10:41:08;;;;;;;7.13;2.78;;;11.30;97.90;;;;;;4992460;28;20062;-51
2023/04/13 10:44:05;;;;;;;5.97;2.88;;;11.30;97.60;;;;;;4992043;28;20093;-48
2023/04/13 10:46:52;;;;;;;4.95;2.38;;;11.40;97.50;;;;;;4973265;28;20064;-54
2023/04/13 10:49:39;;;;;;;6.88;2.53;;;11.20;97.70;;;;;;4992146;28;20117;-49
2023/04/13 10:52:25;;;;;;;5.55;2.35;;;11.40;97.70;;;;;;4992528;28;20025;-51
2023/04/13 10:55:12;;;;;;;9.77;2.83;;;11.30;97.20;;;;;;4991343;28;20030;-50
2023/04/13 10:58:00;;;;;;;12.88;2.53;;;11.30;97.50;;;;;;4991581;28;20483;-50
2023/04/13 11:00:46;;;;;;;2.85;2.20;;;11.30;97.20;;;;;;4990873;28;20030;-53
2023/04/13 11:03:32;;;;;;;4.32;2.63;;;11.30;97.50;;;;;;4992404;28;20108;-53
2023/04/13 11:06:18;;;;;;;6.00;2.60;;;11.30;97.40;;;;;;4976776;28;20165;-52
2023/04/13 11:09:05;;;;;;;4.88;2.20;;;11.30;97.60;;;;;;4977804;28;20030;-54
2023/04/13 11:11:51;;;;;;;6.22;2.58;;;11.30;97.80;;;;;;4991038;28;20073;-51
2023/04/13 11:14:37;;;;;;;4.60;2.47;;;11.30;97.80;;;;;;4971420;28;20499;-49
2023/04/13 11:17:23;;;;;;;5.07;2.42;;;11.30;97.90;;;;;;4984182;28;20041;-49
2023/04/13 11:20:10;;;;;;;4.32;2.17;;;11.40;97.60;;;;;;4991767;28;20029;-53
2023/04/13 11:22:56;;;;;;;4.07;2.58;;;11.50;97.40;;;;;;4991510;28;20113;-49
2023/04/13 11:25:51;;;;;;;4.93;2.80;;;11.60;97.40;;;;;;4990287;28;20078;-49
2023/04/13 11:28:39;;;;;;;;;;;11.70;97.40;;;;;;4992052;28;20027;-51
2023/04/13 11:31:38;;;;;;;4.03;2.40;;;11.70;97.40;;;;;;4991674;28;19925;-50
2023/04/13 11:34:27;;;;;;;5.55;2.75;;;11.80;97.30;;;;;;4992366;28;20058;-56
2023/04/13 11:37:13;;;;;;;7.97;2.63;;;11.90;97.20;;;;;;4992224;28;20402;-49
2023/04/13 11:40:07;;;;;;;7.50;2.80;;;11.90;97.30;;;;;;4975363;28;20031;-56
2023/04/13 11:42:55;;;;;;;6.40;2.55;;;11.90;97.30;;;;;;4982763;28;20031;-55
2023/04/13 11:45:42;;;;;;;5.20;2.45;;;11.90;97.20;;;;;;4990199;28;20040;-54
2023/04/13 11:48:28;;;;;;;4.22;2.67;;;11.90;97.40;;;;;;4992951;28;20113;-52
2023/04/13 11:51:15;;;;;;;5.50;2.92;;;11.80;96.80;;;;;;4990314;28;20680;-51
2023/04/13 11:54:01;;;;;;;3.45;2.25;;;11.60;97.00;;;;;;4971734;28;20735;-49
2023/04/13 11:56:48;;;;;;;4.22;2.25;;;11.70;97.00;;;;;;4971645;28;20051;-58
2023/04/13 11:59:35;;;;;;;3.85;2.33;;;11.70;97.20;;;;;;4971745;28;20027;-54
2023/04/13 12:02:29;;;;;;;5.05;2.40;;;11.60;97.00;;;;;;4957352;28;20099;-55
2023/04/13 12:05:23;;;;;;;4.45;2.35;;;11.60;97.30;;;;;;4966158;28;20038;-55
2023/04/13 12:08:20;;;;;;;4.55;2.40;;;11.60;97.50;;;;;;4984716;28;20034;-56
2023/04/13 12:11:06;;;;;;;5.45;2.88;;;11.60;97.40;;;;;;4993631;28;20078;-56
2023/04/13 12:13:55;;;;;;;4.75;2.30;;;11.70;97.10;;;;;;4991608;28;20030;-51
2023/04/13 12:19:39;;;;;;;4.50;2.42;;;11.80;97.20;;;;;;5009673;28;20045;-74
2023/04/13 12:22:40;;;;;;;6.32;2.65;;;11.90;97.30;;;;;;4996624;28;20034;-74
2023/04/13 12:25:26;;;;;;;6.30;2.70;;;11.90;96.90;;;;;;5010673;28;20109;-74
2023/04/13 12:28:12;;;;;;;3.22;2.20;;;11.80;96.70;;;;;;5029913;28;20512;-73
2023/04/13 12:31:01;;;;;;;6.65;2.50;;;11.90;96.80;;;;;;5030435;28;20061;-74
2023/04/13 12:33:47;;;;;;;7.13;2.85;;;12.00;96.90;;;;;;5017366;28;20030;-74
2023/04/13 12:36:35;;;;;;;6.90;2.60;;;12.10;96.60;;;;;;4980087;28;20030;-75
2023/04/13 12:39:21;;;;;;;5.22;2.33;;;12.00;97.00;;;;;;4996797;28;20528;-76
2023/04/13 12:42:07;;;;;;;5.28;2.30;;;12.10;96.90;;;;;;4995680;28;20513;-75
2023/04/13 12:44:55;;;;;;;3.88;2.67;;;12.20;96.70;;;;;;4996082;28;20030;-75
2023/04/13 12:47:41;;;;;;;4.07;2.65;;;12.10;96.70;;;;;;4997378;28;20109;-75
2023/04/13 12:50:27;;;;;;;4.65;2.42;;;12.10;96.90;;;;;;4986307;28;20489;-74
2023/04/13 12:53:16;;;;;;;4.03;2.50;;;12.10;96.60;;;;;;4985784;28;20030;-74
2023/04/13 12:56:02;;;;;;;4.30;2.40;;;12.10;96.60;;;;;;5000082;28;20458;-74
2023/04/13 12:58:48;;;;;;;7.28;2.80;;;12.20;96.50;;;;;;5016379;28;20031;-73
2023/04/13 13:01:37;;;;;;;5.28;2.75;;;12.30;96.70;;;;;;5001422;28;20084;-74
2023/04/13 13:04:23;;;;;;;4.93;2.63;;;12.40;96.60;;;;;;5014168;28;20026;-75
2023/04/13 13:07:09;;;;;;;4.50;2.70;;;12.40;96.40;;;;;;4980780;28;20430;-74
2023/04/13 13:09:55;;;;;;;7.45;2.90;;;12.50;96.20;;;;;;4982929;28;20113;-73
2023/04/13 13:12:40;;;;;;;5.70;2.70;;;12.50;96.20;;;;;;5014517;28;20037;-74
2023/04/13 13:15:26;;;;;;;4.82;2.53;;;12.60;96.20;;;;;;4981360;28;20034;-72
2023/04/13 13:18:15;;;;;;;6.35;2.78;;;13.10;96.00;;;;;;5006129;28;20034;-72
2023/04/13 13:21:01;;;;;;;6.45;2.70;;;13.40;95.10;;;;;;5000006;28;20030;-75
2023/04/13 13:23:47;;;;;;;5.28;2.88;;;13.20;95.50;;;;;;5003148;28;20092;-73
2023/04/13 13:26:33;;;;;;;5.60;2.60;;;13.20;95.00;;;;;;5019217;28;20057;-74
2023/04/13 13:29:22;;;;;;;5.45;3.15;;;13.20;95.30;;;;;;5007287;28;20456;-75
2023/04/13 13:32:08;;;;;;;5.80;3.08;;;13.10;95.10;;;;;;5020067;28;20037;-74
2023/04/13 13:34:55;;;;;;;4.05;2.55;;;12.90;95.00;;;;;;5013064;28;20644;-74
2023/04/13 13:37:41;;;;;;;5.85;2.80;;;12.90;95.10;;;;;;5011959;28;20032;-74
2023/04/13 13:40:27;;;;;;;6.15;2.78;;;13.00;95.20;;;;;;4999626;28;20022;-75
2023/04/13 13:43:13;;;;;;;6.80;2.55;;;13.10;94.90;;;;;;5005638;28;20034;-74
2023/04/13 13:46:04;;;;;;;4.82;2.42;;;13.10;94.70;;;;;;4995006;28;20036;-73
2023/04/13 13:48:50;;;;;;;18.77;9.25;;;13.10;95.00;;;;;;4978483;28;20034;-76
2023/04/13 13:51:36;;;;;;;7.40;4.25;;;13.10;95.20;;;;;;4998301;28;20030;-76
2023/04/13 13:54:22;;;;;;;4.88;3.10;;;13.20;95.00;;;;;;4967236;28;20042;-75
2023/04/13 13:57:08;;;;;;;4.65;2.55;;;13.10;95.20;;;;;;5007251;28;20460;-74
2023/04/13 13:59:53;;;;;;;4.55;2.20;;;13.20;94.80;;;;;;4995011;28;20116;-73
2023/04/13 14:02:40;;;;;;;6.35;2.60;;;13.10;95.00;;;;;;5013121;28;20026;-74
2023/04/13 14:05:26;;;;;;;6.85;2.40;;;13.00;95.00;;;;;;4979615;28;20052;-72
2023/04/13 14:08:12;;;;;;;5.00;2.63;;;13.20;95.10;;;;;;4989425;28;20074;-74
2023/04/13 14:10:59;;;;;;;5.72;2.78;;;13.30;96.20;;;;;;5001097;28;20022;-74
2023/04/13 14:13:45;;;;;;;7.93;3.25;;;13.40;94.60;;;;;;5011802;28;20568;-74
2023/04/13 14:16:31;;;;;;;8.65;3.05;;;13.50;94.30;;;;;;4964815;28;20471;-74
2023/04/13 14:19:19;;;;;;;7.20;2.65;;;13.40;94.50;;;;;;4992378;28;20025;-75
2023/04/13 14:22:05;;;;;;;4.30;2.72;;;13.50;93.90;;;;;;5016185;28;20029;-73
2023/04/13 14:24:53;;;;;;;5.18;2.72;;;13.10;94.30;;;;;;5017679;28;20456;-74
2023/04/13 14:27:39;;;;;;;5.07;3.05;;;13.20;94.70;;;;;;4992316;28;20109;-74
2023/04/13 14:30:25;;;;;;;5.57;2.80;;;13.40;94.40;;;;;;4985747;28;20029;-73
2023/04/13 14:33:13;;;;;;;5.63;2.60;;;13.50;94.20;;;;;;5017472;28;20116;-73
2023/04/13 14:35:59;;;;;;;5.35;2.78;;;13.70;94.30;;;;;;5027955;28;20040;-74
2023/04/13 14:38:46;;;;;;;6.93;2.50;;;14.10;93.10;;;;;;4990204;28;20503;-74
2023/04/13 14:41:32;;;;;;;6.97;2.45;;;14.40;92.90;;;;;;5002604;28;20034;-73